Time;durP1;ratioP1;P1;durP2;ratioP2;P2;SDS_P1;SDS_P2;PMS_P1;PMS_P2;Temp;Humidity;BMP_temperature;BMP_pressure;BME280_temperature;BME280_humidity;BME280_pressure;Samples;Min_cycle;Max_cycle;Signal;HPM_P1;HPM_P2
2021/07/20 00:02:03;;;;;;;21.23;12.43;;;16.20;99.90;;;;;;6610688;89;20387;-77
2021/07/20 00:12:04;;;;;;;21.63;12.63;;;16.00;99.90;;;;;;6611479;89;20204;-76
2021/07/20 00:22:05;;;;;;;22.13;13.05;;;15.90;99.90;;;;;;6611153;89;20278;-78
2021/07/20 00:32:06;;;;;;;22.25;12.55;;;15.80;99.90;;;;;;6610977;89;20261;-77
2021/07/20 00:42:06;;;;;;;23.17;12.90;;;15.60;99.90;;;;;;6610868;89;20689;-77
2021/07/20 00:52:07;;;;;;;22.02;13.18;;;15.60;99.90;;;;;;6610072;89;20203;-78
2021/07/20 01:02:08;;;;;;;20.80;12.23;;;15.50;99.90;;;;;;6609670;89;20243;-77
2021/07/20 01:12:10;;;;;;;25.05;13.13;;;15.40;99.90;;;;;;6609581;89;20198;-76
2021/07/20 01:22:11;;;;;;;22.58;12.82;;;15.40;99.90;;;;;;6609357;89;20324;-77
2021/07/20 01:32:12;;;;;;;24.40;12.37;;;15.20;99.90;;;;;;6609368;89;20311;-78
2021/07/20 01:42:13;;;;;;;21.33;12.85;;;15.00;99.90;;;;;;6608945;89;20217;-77
2021/07/20 01:52:14;;;;;;;20.88;12.45;;;15.00;99.90;;;;;;6610965;89;20260;-78
2021/07/20 02:02:37;;;;;;;21.87;12.25;;;15.00;99.90;;;;;;6609810;89;20190;-78
2021/07/20 02:12:41;;;;;;;22.50;13.40;;;14.80;99.90;;;;;;6611795;89;21151;-77
2021/07/20 02:22:43;;;;;;;21.15;12.73;;;14.70;99.90;;;;;;6610913;89;20203;-78
2021/07/20 02:32:45;;;;;;;23.05;13.35;;;14.90;99.90;;;;;;6611333;89;20226;-77
2021/07/20 02:42:46;;;;;;;20.30;12.25;;;14.70;99.90;;;;;;6610084;89;20215;-77
2021/07/20 02:52:49;;;;;;;23.00;13.07;;;14.50;99.90;;;;;;6611235;89;20204;-76
2021/07/20 03:02:50;;;;;;;23.55;12.50;;;14.60;99.90;;;;;;6611306;89;20688;-76
2021/07/20 03:12:54;;;;;;;23.12;12.63;;;14.40;99.90;;;;;;6614084;89;20232;-76
2021/07/20 03:22:57;;;;;;;23.52;12.57;;;14.50;99.90;;;;;;6628742;89;20185;-76
2021/07/20 03:33:00;;;;;;;25.80;12.68;;;14.40;99.90;;;;;;6629914;89;20607;-76
2021/07/20 03:43:01;;;;;;;23.23;12.43;;;14.30;99.90;;;;;;6625964;89;20572;-77
2021/07/20 03:53:03;;;;;;;23.45;12.90;;;14.30;99.90;;;;;;6611039;89;20205;-76
2021/07/20 04:03:22;;;;;;;23.87;12.13;;;14.40;99.90;;;;;;6613560;89;20638;-77
2021/07/20 04:13:23;;;;;;;22.87;12.23;;;14.20;99.90;;;;;;6610318;89;20863;-77
2021/07/20 04:23:24;;;;;;;22.70;12.35;;;14.20;99.90;;;;;;6610591;89;20226;-78
2021/07/20 04:33:31;;;;;;;23.27;12.40;;;14.20;99.90;;;;;;6610162;89;20197;-77
2021/07/20 04:43:32;;;;;;;22.10;12.10;;;14.20;99.90;;;;;;6600658;89;20248;-77
2021/07/20 04:53:36;;;;;;;20.95;11.75;;;14.30;99.90;;;;;;6609858;89;20217;-77
2021/07/20 05:03:39;;;;;;;27.08;12.65;;;14.50;99.90;;;;;;6609257;89;20209;-77
2021/07/20 05:13:41;;;;;;;21.00;11.50;;;14.70;99.90;;;;;;6619418;89;20195;-77
2021/07/20 05:23:45;;;;;;;21.50;11.27;;;14.70;99.90;;;;;;6622009;89;20209;-79
2021/07/20 05:33:48;;;;;;;21.17;11.52;;;14.80;99.90;;;;;;6630165;88;20197;-79
2021/07/20 05:43:49;;;;;;;27.15;11.88;;;15.10;99.90;;;;;;6631518;89;20235;-79
2021/07/20 05:53:51;;;;;;;21.73;11.02;;;14.90;99.90;;;;;;6629935;89;20200;-79
2021/07/20 06:03:55;;;;;;;21.73;10.88;;;15.30;99.90;;;;;;6632184;88;20823;-78
2021/07/20 06:13:57;;;;;;;23.55;10.90;;;15.50;99.90;;;;;;6630669;88;20190;-79
2021/07/20 06:23:58;;;;;;;21.90;10.40;;;16.30;99.90;;;;;;6630423;88;20209;-79
2021/07/20 06:33:59;;;;;;;20.62;10.77;;;16.80;99.90;;;;;;6625502;89;20577;-79
2021/07/20 06:44:00;;;;;;;23.62;11.57;;;17.30;99.90;;;;;;6620927;89;20240;-79
2021/07/20 06:54:02;;;;;;;24.00;11.27;;;17.80;99.90;;;;;;6638925;88;20219;-79
2021/07/20 07:04:22;;;;;;;26.30;11.98;;;18.30;99.90;;;;;;6618733;89;20794;-78
2021/07/20 07:14:23;;;;;;;21.25;10.98;;;19.00;99.90;;;;;;6621195;89;20793;-79
2021/07/20 07:24:25;;;;;;;23.30;11.12;;;19.70;99.90;;;;;;6620186;89;20600;-80
2021/07/20 07:34:26;;;;;;;20.92;10.80;;;20.30;99.90;;;;;;6622646;89;20205;-79
2021/07/20 07:44:27;;;;;;;19.12;10.18;;;20.50;99.90;;;;;;6619100;89;20643;-80
2021/07/20 07:54:29;;;;;;;20.12;10.70;;;20.90;99.90;;;;;;6616378;89;20220;-79
2021/07/20 08:04:33;;;;;;;18.95;10.48;;;21.70;99.90;;;;;;6614839;89;20367;-79
2021/07/20 08:14:33;;;;;;;22.23;10.35;;;22.40;99.90;;;;;;6615629;89;20260;-80
2021/07/20 08:24:38;;;;;;;21.40;10.30;;;23.00;99.90;;;;;;6616070;89;20713;-79
2021/07/20 08:34:44;;;;;;;25.08;11.15;;;23.80;99.90;;;;;;6627400;89;20186;-79
2021/07/20 08:44:51;;;;;;;18.30;10.68;;;24.50;99.90;;;;;;6618773;89;20669;-78
2021/07/20 08:54:58;;;;;;;20.58;9.07;;;26.10;99.90;;;;;;6630496;89;20240;-78
2021/07/20 09:05:05;;;;;;;13.57;7.65;;;25.60;99.90;;;;;;6614888;89;20535;-78
2021/07/20 09:15:10;;;;;;;12.77;6.12;;;24.70;99.30;;;;;;6615921;89;20198;-78
2021/07/20 09:25:24;;;;;;;10.73;6.50;;;25.80;96.60;;;;;;6613973;89;20229;-79
2021/07/20 09:35:58;;;;;;;12.75;7.60;;;27.50;94.50;;;;;;6618308;89;20281;-78
2021/07/20 09:46:03;;;;;;;14.40;7.90;;;27.60;92.80;;;;;;6618793;89;20303;-78
2021/07/20 09:56:39;;;;;;;12.63;8.43;;;27.50;92.70;;;;;;6615794;89;20217;-79
2021/07/20 10:06:43;;;;;;;13.32;7.80;;;28.50;90.30;;;;;;6617777;89;20252;-77
2021/07/20 10:17:06;;;;;;;13.88;8.02;;;26.90;91.50;;;;;;6618465;89;20813;-78
2021/07/20 10:27:15;;;;;;;12.97;7.97;;;26.30;91.80;;;;;;6617421;89;20203;-78
2021/07/20 10:37:26;;;;;;;13.13;7.97;;;27.00;91.20;;;;;;6620353;89;20236;-77
2021/07/20 10:47:54;;;;;;;17.00;8.13;;;28.80;89.50;;;;;;6620731;89;20197;-77
2021/07/20 10:58:24;;;;;;;13.40;8.02;;;28.90;87.80;;;;;;6622369;89;20211;-80
2021/07/20 11:08:26;;;;;;;14.45;7.90;;;29.10;83.40;;;;;;6622044;89;20266;-79
2021/07/20 11:18:32;;;;;;;12.90;7.90;;;28.80;84.90;;;;;;6624629;89;20194;-78
2021/07/20 11:28:33;;;;;;;13.20;8.07;;;28.70;83.00;;;;;;6622197;89;20189;-78
2021/07/20 11:38:37;;;;;;;12.75;7.95;;;28.10;83.30;;;;;;6622413;89;20255;-78
2021/07/20 11:48:52;;;;;;;12.40;7.60;;;28.10;84.10;;;;;;6623352;89;20276;-79
2021/07/20 11:59:26;;;;;;;13.18;7.28;;;27.70;84.00;;;;;;6623057;88;20185;-79
2021/07/20 12:09:33;;;;;;;11.40;7.85;;;29.20;80.40;;;;;;6616672;88;20202;-79
2021/07/20 12:19:35;;;;;;;13.18;8.00;;;28.10;80.80;;;;;;6618081;88;20661;-78
2021/07/20 12:29:42;;;;;;;13.62;7.87;;;28.80;79.00;;;;;;6619471;89;20198;-79
2021/07/20 12:39:43;;;;;;;12.25;7.65;;;29.40;78.60;;;;;;6617010;89;20237;-78
2021/07/20 12:49:44;;;;;;;12.30;7.70;;;28.90;78.60;;;;;;6621699;89;20323;-77
2021/07/20 12:59:45;;;;;;;;;;;30.10;78.60;;;;;;6614837;89;20199;-78
2021/07/20 13:09:47;;;;;;;13.40;7.53;;;30.90;76.50;;;;;;6612462;89;20111;-78
2021/07/20 13:19:48;;;;;;;11.50;7.50;;;31.00;76.10;;;;;;6612295;89;20193;-78
2021/07/20 13:29:48;;;;;;;10.02;7.07;;;31.90;73.10;;;;;;6617361;89;20647;-77
2021/07/20 13:39:50;;;;;;;15.10;8.23;;;30.80;74.10;;;;;;6629557;87;20196;-78
2021/07/20 13:49:54;;;;;;;12.57;7.47;;;30.70;72.90;;;;;;6615447;89;20205;-77
2021/07/20 13:59:58;;;;;;;11.60;7.10;;;30.70;73.30;;;;;;6632891;89;20207;-77
2021/07/20 14:09:59;;;;;;;12.85;7.40;;;31.10;71.60;;;;;;6613836;89;20183;-77
2021/07/20 14:20:00;;;;;;;12.40;7.67;;;31.90;71.30;;;;;;6613370;89;20197;-79
2021/07/20 14:30:00;;;;;;;12.70;6.70;;;31.00;70.70;;;;;;6613403;89;20211;-78
2021/07/20 14:40:19;;;;;;;12.57;6.67;;;31.20;70.50;;;;;;6612311;89;20226;-77
2021/07/20 14:50:36;;;;;;;13.98;6.65;;;30.80;69.80;;;;;;6594947;90;20249;-77
2021/07/20 15:00:52;;;;;;;11.50;6.25;;;30.80;70.00;;;;;;6595487;90;20930;-77
2021/07/20 15:10:54;;;;;;;10.48;6.43;;;30.80;70.70;;;;;;6595864;90;20197;-76
2021/07/20 15:20:55;;;;;;;14.48;6.65;;;30.20;69.30;;;;;;6596460;89;20208;-78
2021/07/20 15:30:56;;;;;;;8.18;5.68;;;30.10;68.90;;;;;;6606530;89;20193;-79
2021/07/20 15:41:01;;;;;;;10.97;6.20;;;29.90;71.10;;;;;;6623037;89;20236;-79
2021/07/20 15:51:02;;;;;;;10.20;5.85;;;29.20;69.50;;;;;;6596587;89;20559;-78
2021/07/20 16:01:04;;;;;;;14.17;5.90;;;29.10;68.90;;;;;;6611573;89;20205;-77
2021/07/20 16:11:05;;;;;;;9.38;5.43;;;29.30;70.20;;;;;;6612361;89;20216;-78
2021/07/20 16:21:06;;;;;;;10.20;5.87;;;29.20;70.20;;;;;;6618929;89;20254;-78
2021/07/20 16:31:07;;;;;;;11.18;5.65;;;30.20;69.30;;;;;;6622875;89;20620;-80
2021/07/20 16:41:13;;;;;;;8.23;5.13;;;30.90;67.80;;;;;;6618801;89;20326;-78
2021/07/20 16:51:18;;;;;;;8.90;5.50;;;28.50;70.00;;;;;;6623431;89;20199;-78
2021/07/20 17:01:29;;;;;;;9.45;6.00;;;28.00;71.20;;;;;;6645128;88;20184;-77
2021/07/20 17:11:30;;;;;;;10.75;5.87;;;27.50;73.40;;;;;;6706074;88;20236;-77
2021/07/20 17:21:36;;;;;;;10.52;5.78;;;27.50;71.40;;;;;;6697881;88;20316;-77
2021/07/20 17:31:37;;;;;;;11.02;5.93;;;28.30;70.80;;;;;;6697453;88;20184;-78
2021/07/20 17:51:58;;;;;;;13.50;5.90;;;28.60;71.70;;;;;;6687472;88;20308;-79
2021/07/20 18:01:59;;;;;;;10.20;5.80;;;28.20;71.40;;;;;;6710489;88;20214;-78
2021/07/20 18:12:00;;;;;;;12.40;6.28;;;27.80;72.30;;;;;;6711256;88;20880;-78
2021/07/20 18:22:00;;;;;;;10.37;6.20;;;25.70;75.80;;;;;;6706308;88;20243;-76
2021/07/20 18:32:02;;;;;;;11.38;6.45;;;25.30;76.50;;;;;;6704950;88;20520;-76
2021/07/20 18:42:05;;;;;;;13.45;6.55;;;24.70;78.80;;;;;;6707419;88;20182;-76
2021/07/20 18:52:05;;;;;;;11.27;6.23;;;24.20;79.80;;;;;;6726914;88;20216;-76
2021/07/20 19:02:07;;;;;;;11.00;6.45;;;23.80;81.80;;;;;;6711698;88;20708;-77
2021/07/20 19:12:08;;;;;;;10.98;6.57;;;23.50;83.20;;;;;;6731802;88;20178;-78
2021/07/20 19:22:08;;;;;;;11.20;6.20;;;23.10;85.20;;;;;;6707342;88;20224;-77
2021/07/20 19:32:13;;;;;;;10.43;6.10;;;22.80;85.90;;;;;;6705293;88;20190;-77
2021/07/20 19:42:13;;;;;;;14.43;5.68;;;22.40;89.10;;;;;;6704616;88;20689;-77
2021/07/20 19:52:14;;;;;;;9.82;6.15;;;22.20;90.10;;;;;;6704576;88;20303;-77
2021/07/20 20:02:14;;;;;;;10.77;5.62;;;22.00;90.60;;;;;;6711940;88;20199;-78
2021/07/20 20:12:15;;;;;;;13.55;6.22;;;21.60;91.90;;;;;;6704601;88;20217;-77
2021/07/20 20:22:16;;;;;;;13.90;6.05;;;20.90;93.30;;;;;;6716514;88;20174;-78
2021/07/20 20:32:17;;;;;;;11.27;6.12;;;20.50;95.40;;;;;;6715823;88;20240;-78
2021/07/20 20:42:17;;;;;;;9.88;6.20;;;20.30;98.60;;;;;;6715787;88;20189;-76
2021/07/20 20:52:18;;;;;;;14.32;6.53;;;20.10;99.00;;;;;;6705319;88;20226;-77
2021/07/20 21:02:19;;;;;;;11.90;6.45;;;19.80;99.90;;;;;;6704050;88;20645;-77
2021/07/20 21:12:20;;;;;;;12.07;6.27;;;19.50;99.90;;;;;;6707733;88;20604;-78
2021/07/20 21:22:20;;;;;;;14.05;6.07;;;19.40;99.90;;;;;;6697757;88;20208;-76
2021/07/20 21:32:22;;;;;;;11.93;5.53;;;19.20;99.90;;;;;;6702345;88;20219;-78
2021/07/20 21:42:23;;;;;;;11.43;5.90;;;19.10;99.90;;;;;;6705310;88;20206;-78
2021/07/20 21:52:23;;;;;;;10.00;5.75;;;19.00;99.90;;;;;;6719086;88;20321;-81
2021/07/20 22:02:24;;;;;;;9.63;4.97;;;19.00;99.90;;;;;;6710704;88;20190;-79
2021/07/20 22:12:24;;;;;;;10.48;4.70;;;18.70;99.90;;;;;;6707670;88;20501;-79
2021/07/20 22:22:25;;;;;;;7.47;4.28;;;18.70;99.90;;;;;;6721262;88;20645;-79
2021/07/20 22:32:26;;;;;;;7.22;4.50;;;18.40;99.90;;;;;;6712700;88;20185;-78
2021/07/20 22:42:26;;;;;;;7.82;4.35;;;18.40;99.90;;;;;;6708942;88;20227;-79
2021/07/20 22:52:27;;;;;;;8.60;4.97;;;18.20;99.90;;;;;;6712881;88;20186;-79
2021/07/20 23:02:28;;;;;;;9.05;5.28;;;18.10;99.90;;;;;;6712414;88;20198;-79
2021/07/20 23:12:28;;;;;;;9.40;5.20;;;17.60;99.90;;;;;;6712364;88;20655;-81
2021/07/20 23:22:29;;;;;;;10.40;5.25;;;17.50;99.90;;;;;;6714105;88;20200;-80
2021/07/20 23:32:30;;;;;;;8.90;4.53;;;17.50;99.90;;;;;;6704145;88;20178;-80
2021/07/20 23:42:30;;;;;;;8.02;4.78;;;17.40;99.90;;;;;;6722508;88;20614;-80
2021/07/20 23:52:31;;;;;;;9.15;5.12;;;17.30;99.90;;;;;;6728283;88;20713;-80
